sensor_id;sensor_type;location;lat;lon;timestamp;pressure;altitude;pressure_sealevel;temperature;humidity
45525;BME280;31437;58.350;13.828;2023-04-08T00:01:06;101856.88;;;2.28;100.00
45525;BME280;31437;58.350;13.828;2023-04-08T00:03:32;101854.28;;;2.28;100.00
45525;BME280;31437;58.350;13.828;2023-04-08T00:05:57;101857.75;;;2.27;100.00
45525;BME280;31437;58.350;13.828;2023-04-08T00:08:24;101862.06;;;2.27;100.00
45525;BME280;31437;58.350;13.828;2023-04-08T00:10:50;101849.94;;;2.26;100.00
45525;BME280;31437;58.350;13.828;2023-04-08T00:13:15;101849.09;;;2.25;100.00
45525;BME280;31437;58.350;13.828;2023-04-08T00:15:40;101852.53;;;2.26;100.00
45525;BME280;31437;58.350;13.828;2023-04-08T00:18:06;101858.56;;;2.23;100.00
45525;BME280;31437;58.350;13.828;2023-04-08T00:20:32;101857.72;;;2.21;100.00
45525;BME280;31437;58.350;13.828;2023-04-08T00:22:57;101856.84;;;2.22;100.00
45525;BME280;31437;58.350;13.828;2023-04-08T00:25:22;101863.75;;;2.22;100.00
45525;BME280;31437;58.350;13.828;2023-04-08T00:27:47;101864.63;;;2.21;100.00
45525;BME280;31437;58.350;13.828;2023-04-08T00:30:13;101866.28;;;2.17;100.00
45525;BME280;31437;58.350;13.828;2023-04-08T00:32:39;101872.34;;;2.16;100.00
45525;BME280;31437;58.350;13.828;2023-04-08T00:35:04;101863.69;;;2.17;100.00
45525;BME280;31437;58.350;13.828;2023-04-08T00:37:30;101868.88;;;2.17;100.00
45525;BME280;31437;58.350;13.828;2023-04-08T00:39:55;101865.41;;;2.14;100.00
45525;BME280;31437;58.350;13.828;2023-04-08T00:42:21;101868.88;;;2.13;100.00
45525;BME280;31437;58.350;13.828;2023-04-08T00:44:46;101866.25;;;2.11;100.00
45525;BME280;31437;58.350;13.828;2023-04-08T00:47:12;101868.00;;;2.14;100.00
45525;BME280;31437;58.350;13.828;2023-04-08T00:49:38;101862.84;;;2.15;100.00
45525;BME280;31437;58.350;13.828;2023-04-08T00:52:03;101868.00;;;2.14;100.00
45525;BME280;31437;58.350;13.828;2023-04-08T00:54:29;101859.38;;;2.16;100.00
45525;BME280;31437;58.350;13.828;2023-04-08T00:56:55;101860.25;;;2.15;100.00
45525;BME280;31437;58.350;13.828;2023-04-08T00:59:20;101865.44;;;2.17;100.00
45525;BME280;31437;58.350;13.828;2023-04-08T01:01:49;101866.28;;;2.16;100.00
45525;BME280;31437;58.350;13.828;2023-04-08T01:04:27;101863.69;;;2.16;100.00
45525;BME280;31437;58.350;13.828;2023-04-08T01:06:56;101861.97;;;2.13;100.00
45525;BME280;31437;58.350;13.828;2023-04-08T01:09:24;101865.41;;;2.14;100.00
45525;BME280;31437;58.350;13.828;2023-04-08T01:11:52;101868.00;;;2.12;100.00
45525;BME280;31437;58.350;13.828;2023-04-08T01:14:22;101866.25;;;2.11;100.00
45525;BME280;31437;58.350;13.828;2023-04-08T01:16:47;101865.41;;;2.09;100.00
45525;BME280;31437;58.350;13.828;2023-04-08T01:19:17;101866.22;;;2.08;100.00
45525;BME280;31437;58.350;13.828;2023-04-08T01:21:45;101869.69;;;2.07;100.00
45525;BME280;31437;58.350;13.828;2023-04-08T01:24:32;101864.47;;;2.04;100.00
45525;BME280;31437;58.350;13.828;2023-04-08T01:26:56;101871.38;;;2.03;100.00
45525;BME280;31437;58.350;13.828;2023-04-08T01:29:23;101869.63;;;2.02;100.00
45525;BME280;31437;58.350;13.828;2023-04-08T01:31:48;101868.78;;;2.00;100.00
45525;BME280;31437;58.350;13.828;2023-04-08T01:34:14;101875.66;;;1.98;100.00
45525;BME280;31437;58.350;13.828;2023-04-08T01:36:41;101873.06;;;1.98;100.00
45525;BME280;31437;58.350;13.828;2023-04-08T01:39:08;101868.75;;;1.97;100.00
45525;BME280;31437;58.350;13.828;2023-04-08T01:41:33;101869.56;;;1.92;100.00
45525;BME280;31437;58.350;13.828;2023-04-08T01:44:00;101865.22;;;1.91;100.00
45525;BME280;31437;58.350;13.828;2023-04-08T01:46:26;101867.78;;;1.88;100.00
45525;BME280;31437;58.350;13.828;2023-04-08T01:48:51;101869.53;;;1.86;100.00
45525;BME280;31437;58.350;13.828;2023-04-08T01:51:18;101873.81;;;1.88;100.00
45525;BME280;31437;58.350;13.828;2023-04-08T01:53:44;101866.94;;;1.86;100.00
45525;BME280;31437;58.350;13.828;2023-04-08T01:56:11;101870.38;;;1.88;100.00
45525;BME280;31437;58.350;13.828;2023-04-08T01:58:37;101872.13;;;1.90;100.00
45525;BME280;31437;58.350;13.828;2023-04-08T02:01:05;101875.59;;;1.89;100.00
45525;BME280;31437;58.350;13.828;2023-04-08T02:03:33;101871.31;;;1.94;100.00
45525;BME280;31437;58.350;13.828;2023-04-08T02:06:00;101863.53;;;1.93;100.00
45525;BME280;31437;58.350;13.828;2023-04-08T02:08:25;101860.97;;;1.94;100.00
45525;BME280;31437;58.350;13.828;2023-04-08T02:10:50;101862.69;;;1.95;100.00
45525;BME280;31437;58.350;13.828;2023-04-08T02:13:16;101867.84;;;1.97;100.00
45525;BME280;31437;58.350;13.828;2023-04-08T02:15:42;101871.31;;;1.96;100.00
45525;BME280;31437;58.350;13.828;2023-04-08T02:18:15;101866.97;;;1.93;100.00
45525;BME280;31437;58.350;13.828;2023-04-08T02:20:46;101871.31;;;1.94;100.00
45525;BME280;31437;58.350;13.828;2023-04-08T02:23:19;101873.88;;;1.93;100.00
45525;BME280;31437;58.350;13.828;2023-04-08T02:25:46;101869.53;;;1.90;100.00
45525;BME280;31437;58.350;13.828;2023-04-08T02:28:16;101876.44;;;1.90;100.00
45525;BME280;31437;58.350;13.828;2023-04-08T02:30:49;101871.25;;;1.90;100.00
45525;BME280;31437;58.350;13.828;2023-04-08T02:33:15;101874.72;;;1.90;100.00
45525;BME280;31437;58.350;13.828;2023-04-08T02:35:42;101867.81;;;1.89;100.00
45525;BME280;31437;58.350;13.828;2023-04-08T02:38:09;101884.19;;;1.88;100.00
45525;BME280;31437;58.350;13.828;2023-04-08T02:40:35;101876.41;;;1.88;100.00
45525;BME280;31437;58.350;13.828;2023-04-08T02:43:01;101886.75;;;1.88;100.00
45525;BME280;31437;58.350;13.828;2023-04-08T02:45:27;101895.44;;;1.89;100.00
45525;BME280;31437;58.350;13.828;2023-04-08T02:47:54;101897.19;;;1.91;100.00
45525;BME280;31437;58.350;13.828;2023-04-08T02:50:19;101893.69;;;1.91;100.00
45525;BME280;31437;58.350;13.828;2023-04-08T02:52:46;101897.19;;;1.91;100.00
45525;BME280;31437;58.350;13.828;2023-04-08T02:55:12;101894.59;;;1.91;100.00
45525;BME280;31437;58.350;13.828;2023-04-08T02:57:40;101896.28;;;1.89;100.00
45525;BME280;31437;58.350;13.828;2023-04-08T03:00:09;101897.16;;;1.90;100.00
45525;BME280;31437;58.350;13.828;2023-04-08T03:02:36;101898.84;;;1.88;100.00
45525;BME280;31437;58.350;13.828;2023-04-08T03:05:01;101899.72;;;1.88;100.00
45525;BME280;31437;58.350;13.828;2023-04-08T03:07:28;101902.28;;;1.87;100.00
45525;BME280;31437;58.350;13.828;2023-04-08T03:09:53;101894.50;;;1.85;100.00
45525;BME280;31437;58.350;13.828;2023-04-08T03:12:19;101898.84;;;1.86;100.00
45525;BME280;31437;58.350;13.828;2023-04-08T03:14:46;101889.31;;;1.85;100.00
45525;BME280;31437;58.350;13.828;2023-04-08T03:17:12;101900.56;;;1.87;100.00
45525;BME280;31437;58.350;13.828;2023-04-08T03:19:37;101900.53;;;1.84;100.00
45525;BME280;31437;58.350;13.828;2023-04-08T03:22:02;101906.59;;;1.85;100.00
45525;BME280;31437;58.350;13.828;2023-04-08T03:24:27;101907.41;;;1.82;100.00
45525;BME280;31437;58.350;13.828;2023-04-08T03:26:53;101902.25;;;1.80;100.00
45525;BME280;31437;58.350;13.828;2023-04-08T03:29:19;101904.81;;;1.79;100.00
45525;BME280;31437;58.350;13.828;2023-04-08T03:31:45;101905.69;;;1.79;100.00
45525;BME280;31437;58.350;13.828;2023-04-08T03:34:11;101901.38;;;1.80;100.00
45525;BME280;31437;58.350;13.828;2023-04-08T03:36:37;101911.72;;;1.80;100.00
45525;BME280;31437;58.350;13.828;2023-04-08T03:39:02;101908.28;;;1.81;100.00
45525;BME280;31437;58.350;13.828;2023-04-08T03:41:28;101906.56;;;1.80;100.00
45525;BME280;31437;58.350;13.828;2023-04-08T03:43:53;101910.91;;;1.83;100.00
45525;BME280;31437;58.350;13.828;2023-04-08T03:46:18;101913.47;;;1.81;100.00
45525;BME280;31437;58.350;13.828;2023-04-08T03:48:44;101916.03;;;1.81;100.00
45525;BME280;31437;58.350;13.828;2023-04-08T03:51:09;101918.63;;;1.81;100.00
45525;BME280;31437;58.350;13.828;2023-04-08T03:53:34;101923.81;;;1.81;100.00
45525;BME280;31437;58.350;13.828;2023-04-08T03:56:00;101925.50;;;1.79;100.00
45525;BME280;31437;58.350;13.828;2023-04-08T03:58:27;101928.09;;;1.77;100.00
45525;BME280;31437;58.350;13.828;2023-04-08T04:00:52;101916.00;;;1.78;100.00
45525;BME280;31437;58.350;13.828;2023-04-08T04:03:19;101927.22;;;1.78;100.00
45525;BME280;31437;58.350;13.828;2023-04-08T04:05:45;101928.97;;;1.79;100.00
45525;BME280;31437;58.350;13.828;2023-04-08T04:08:10;101926.38;;;1.78;100.00
45525;BME280;31437;58.350;13.828;2023-04-08T04:10:36;101930.69;;;1.79;100.00
45525;BME280;31437;58.350;13.828;2023-04-08T04:13:01;101928.97;;;1.81;100.00
45525;BME280;31437;58.350;13.828;2023-04-08T04:15:27;101929.00;;;1.83;100.00
45525;BME280;31437;58.350;13.828;2023-04-08T04:17:52;101934.16;;;1.81;100.00
45525;BME280;31437;58.350;13.828;2023-04-08T04:20:17;101937.59;;;1.81;100.00
45525;BME280;31437;58.350;13.828;2023-04-08T04:22:44;101946.22;;;1.82;100.00
45525;BME280;31437;58.350;13.828;2023-04-08T04:25:09;101938.47;;;1.80;100.00
45525;BME280;31437;58.350;13.828;2023-04-08T04:27:35;101948.81;;;1.80;100.00
45525;BME280;31437;58.350;13.828;2023-04-08T04:30:03;101950.53;;;1.77;100.00
45525;BME280;31437;58.350;13.828;2023-04-08T04:32:29;101946.22;;;1.77;100.00
45525;BME280;31437;58.350;13.828;2023-04-08T04:34:54;101956.56;;;1.77;100.00
45525;BME280;31437;58.350;13.828;2023-04-08T04:37:19;101964.31;;;1.77;100.00
45525;BME280;31437;58.350;13.828;2023-04-08T04:39:45;101963.47;;;1.77;100.00
45525;BME280;31437;58.350;13.828;2023-04-08T04:42:11;101959.97;;;1.75;100.00
45525;BME280;31437;58.350;13.828;2023-04-08T04:44:36;101972.91;;;1.75;100.00
45525;BME280;31437;58.350;13.828;2023-04-08T04:47:01;101967.75;;;1.75;100.00
45525;BME280;31437;58.350;13.828;2023-04-08T04:49:27;101977.22;;;1.74;100.00
45525;BME280;31437;58.350;13.828;2023-04-08T04:51:52;101977.22;;;1.74;100.00
45525;BME280;31437;58.350;13.828;2023-04-08T04:54:17;101977.19;;;1.73;100.00
45525;BME280;31437;58.350;13.828;2023-04-08T04:56:43;101985.81;;;1.72;100.00
45525;BME280;31437;58.350;13.828;2023-04-08T04:59:08;101986.69;;;1.72;100.00
45525;BME280;31437;58.350;13.828;2023-04-08T05:01:34;101992.72;;;1.71;100.00
45525;BME280;31437;58.350;13.828;2023-04-08T05:03:59;101997.03;;;1.72;100.00
45525;BME280;31437;58.350;13.828;2023-04-08T05:06:25;101997.91;;;1.73;100.00
45525;BME280;31437;58.350;13.828;2023-04-08T05:08:51;102000.47;;;1.73;100.00
45525;BME280;31437;58.350;13.828;2023-04-08T05:11:17;102005.66;;;1.73;100.00
45525;BME280;31437;58.350;13.828;2023-04-08T05:13:42;102014.28;;;1.73;100.00
45525;BME280;31437;58.350;13.828;2023-04-08T05:16:11;102022.94;;;1.74;100.00
45525;BME280;31437;58.350;13.828;2023-04-08T05:18:36;102021.22;;;1.74;100.00
45525;BME280;31437;58.350;13.828;2023-04-08T05:21:01;102018.63;;;1.76;100.00
45525;BME280;31437;58.350;13.828;2023-04-08T05:23:27;102020.38;;;1.77;100.00
45525;BME280;31437;58.350;13.828;2023-04-08T05:25:52;102017.81;;;1.78;100.00
45525;BME280;31437;58.350;13.828;2023-04-08T05:28:18;102022.97;;;1.78;100.00
45525;BME280;31437;58.350;13.828;2023-04-08T05:30:47;102030.78;;;1.80;100.00
45525;BME280;31437;58.350;13.828;2023-04-08T05:33:12;102028.22;;;1.83;100.00
45525;BME280;31437;58.350;13.828;2023-04-08T05:35:38;102033.41;;;1.85;100.00
45525;BME280;31437;58.350;13.828;2023-04-08T05:38:04;102032.56;;;1.87;100.00
45525;BME280;31437;58.350;13.828;2023-04-08T05:40:30;102037.78;;;1.90;100.00
45525;BME280;31437;58.350;13.828;2023-04-08T05:42:56;102030.91;;;1.92;100.00
45525;BME280;31437;58.350;13.828;2023-04-08T05:45:21;102031.78;;;1.96;100.00
45525;BME280;31437;58.350;13.828;2023-04-08T05:47:46;102043.03;;;1.99;100.00
45525;BME280;31437;58.350;13.828;2023-04-08T05:50:11;102043.97;;;2.03;100.00
45525;BME280;31437;58.350;13.828;2023-04-08T05:52:40;102039.66;;;2.05;100.00
45525;BME280;31437;58.350;13.828;2023-04-08T05:55:05;102036.25;;;2.09;100.00
45525;BME280;31437;58.350;13.828;2023-04-08T05:57:31;102034.56;;;2.13;100.00
45525;BME280;31437;58.350;13.828;2023-04-08T05:59:56;102036.31;;;2.17;100.00
45525;BME280;31437;58.350;13.828;2023-04-08T06:02:21;102042.38;;;2.19;100.00
45525;BME280;31437;58.350;13.828;2023-04-08T06:04:47;102039.84;;;2.22;100.00
45525;BME280;31437;58.350;13.828;2023-04-08T06:07:13;102039.88;;;2.26;100.00
45525;BME280;31437;58.350;13.828;2023-04-08T06:09:38;102035.59;;;2.30;100.00
45525;BME280;31437;58.350;13.828;2023-04-08T06:12:03;102038.22;;;2.33;100.00
45525;BME280;31437;58.350;13.828;2023-04-08T06:14:28;102043.44;;;2.36;100.00
45525;BME280;31437;58.350;13.828;2023-04-08T06:16:54;102045.19;;;2.39;100.00
45525;BME280;31437;58.350;13.828;2023-04-08T06:19:21;102044.34;;;2.43;100.00
45525;BME280;31437;58.350;13.828;2023-04-08T06:21:46;102045.22;;;2.46;100.00
45525;BME280;31437;58.350;13.828;2023-04-08T06:24:11;102043.56;;;2.50;100.00
45525;BME280;31437;58.350;13.828;2023-04-08T06:26:36;102041.84;;;2.54;100.00
45525;BME280;31437;58.350;13.828;2023-04-08T06:29:02;102043.59;;;2.56;100.00
45525;BME280;31437;58.350;13.828;2023-04-08T06:31:28;102045.38;;;2.62;100.00
45525;BME280;31437;58.350;13.828;2023-04-08T06:33:53;102041.91;;;2.61;100.00
45525;BME280;31437;58.350;13.828;2023-04-08T06:36:19;102048.84;;;2.67;100.00
45525;BME280;31437;58.350;13.828;2023-04-08T06:38:45;102055.81;;;2.71;100.00
45525;BME280;31437;58.350;13.828;2023-04-08T06:41:11;102050.63;;;2.71;100.00
45525;BME280;31437;58.350;13.828;2023-04-08T06:43:36;102054.09;;;2.73;100.00
45525;BME280;31437;58.350;13.828;2023-04-08T06:46:01;102049.81;;;2.77;100.00
45525;BME280;31437;58.350;13.828;2023-04-08T06:48:27;102063.63;;;2.77;100.00
45525;BME280;31437;58.350;13.828;2023-04-08T06:50:57;102055.91;;;2.83;100.00
45525;BME280;31437;58.350;13.828;2023-04-08T06:53:22;102057.69;;;2.89;100.00
45525;BME280;31437;58.350;13.828;2023-04-08T06:55:48;102063.72;;;2.91;100.00
45525;BME280;31437;58.350;13.828;2023-04-08T06:58:14;102063.75;;;2.94;100.00
45525;BME280;31437;58.350;13.828;2023-04-08T07:00:40;102055.16;;;3.01;100.00
45525;BME280;31437;58.350;13.828;2023-04-08T07:03:06;102056.06;;;3.08;100.00
45525;BME280;31437;58.350;13.828;2023-04-08T07:05:31;102056.13;;;3.20;100.00
45525;BME280;31437;58.350;13.828;2023-04-08T07:07:58;102056.19;;;3.28;100.00
45525;BME280;31437;58.350;13.828;2023-04-08T07:10:23;102047.59;;;3.33;100.00
45525;BME280;31437;58.350;13.828;2023-04-08T07:12:48;102046.75;;;3.42;100.00
45525;BME280;31437;58.350;13.828;2023-04-08T07:15:15;102044.16;;;3.44;100.00
45525;BME280;31437;58.350;13.828;2023-04-08T07:17:40;102041.59;;;3.50;100.00
45525;BME280;31437;58.350;13.828;2023-04-08T07:20:05;102032.09;;;3.49;100.00
45525;BME280;31437;58.350;13.828;2023-04-08T07:22:31;102045.97;;;3.57;100.00
45525;BME280;31437;58.350;13.828;2023-04-08T07:24:56;102044.25;;;3.62;100.00
45525;BME280;31437;58.350;13.828;2023-04-08T07:27:21;102046.88;;;3.67;100.00
45525;BME280;31437;58.350;13.828;2023-04-08T07:29:51;102043.44;;;3.74;100.00
45525;BME280;31437;58.350;13.828;2023-04-08T07:32:16;102046.06;;;3.77;100.00
45525;BME280;31437;58.350;13.828;2023-04-08T07:34:41;102037.44;;;3.89;100.00
45525;BME280;31437;58.350;13.828;2023-04-08T07:37:06;102044.38;;;3.94;100.00
45525;BME280;31437;58.350;13.828;2023-04-08T07:39:32;102046.13;;;4.07;100.00
45525;BME280;31437;58.350;13.828;2023-04-08T07:41:57;102048.75;;;4.15;100.00
45525;BME280;31437;58.350;13.828;2023-04-08T07:44:23;102047.00;;;4.17;100.00
45525;BME280;31437;58.350;13.828;2023-04-08T07:46:48;102057.44;;;4.29;100.00
45525;BME280;31437;58.350;13.828;2023-04-08T07:49:15;102046.16;;;4.26;100.00
45525;BME280;31437;58.350;13.828;2023-04-08T07:51:40;102048.75;;;4.29;100.00
45525;BME280;31437;58.350;13.828;2023-04-08T07:54:06;102053.97;;;4.40;100.00
45525;BME280;31437;58.350;13.828;2023-04-08T07:56:32;102055.72;;;4.45;100.00
45525;BME280;31437;58.350;13.828;2023-04-08T07:58:57;102051.38;;;4.58;100.00
45525;BME280;31437;58.350;13.828;2023-04-08T08:01:22;102054.84;;;4.75;100.00
45525;BME280;31437;58.350;13.828;2023-04-08T08:03:49;102064.38;;;4.86;100.00
45525;BME280;31437;58.350;13.828;2023-04-08T08:06:14;102054.84;;;4.86;100.00
45525;BME280;31437;58.350;13.828;2023-04-08T08:08:40;102049.63;;;4.88;100.00
45525;BME280;31437;58.350;13.828;2023-04-08T08:11:05;102059.19;;;4.84;100.00
45525;BME280;31437;58.350;13.828;2023-04-08T08:13:31;102061.75;;;4.96;100.00
45525;BME280;31437;58.350;13.828;2023-04-08T08:15:57;102060.91;;;4.97;100.00
45525;BME280;31437;58.350;13.828;2023-04-08T08:18:22;102073.00;;;5.14;100.00
45525;BME280;31437;58.350;13.828;2023-04-08T08:20:47;102070.38;;;5.23;100.00
45525;BME280;31437;58.350;13.828;2023-04-08T08:23:13;102075.59;;;5.24;100.00
45525;BME280;31437;58.350;13.828;2023-04-08T08:25:38;102070.38;;;5.32;100.00
45525;BME280;31437;58.350;13.828;2023-04-08T08:28:03;102075.56;;;5.40;100.00
45525;BME280;31437;58.350;13.828;2023-04-08T08:30:29;102079.03;;;5.39;100.00
45525;BME280;31437;58.350;13.828;2023-04-08T08:32:54;102071.22;;;5.42;100.00
45525;BME280;31437;58.350;13.828;2023-04-08T08:35:22;102079.00;;;5.51;100.00
45525;BME280;31437;58.350;13.828;2023-04-08T08:37:48;102078.16;;;5.47;100.00
45525;BME280;31437;58.350;13.828;2023-04-08T08:40:13;102076.41;;;5.43;100.00
45525;BME280;31437;58.350;13.828;2023-04-08T08:42:39;102073.78;;;5.50;100.00
45525;BME280;31437;58.350;13.828;2023-04-08T08:45:05;102068.56;;;5.54;100.00
45525;BME280;31437;58.350;13.828;2023-04-08T08:47:31;102078.97;;;5.63;100.00
45525;BME280;31437;58.350;13.828;2023-04-08T08:49:56;102078.03;;;5.75;100.00
45525;BME280;31437;58.350;13.828;2023-04-08T08:52:21;102084.09;;;5.80;100.00
45525;BME280;31437;58.350;13.828;2023-04-08T08:54:47;102092.75;;;5.95;100.00
45525;BME280;31437;58.350;13.828;2023-04-08T08:57:16;102086.66;;;5.99;100.00
45525;BME280;31437;58.350;13.828;2023-04-08T08:59:44;102091.75;;;6.20;100.00
45525;BME280;31437;58.350;13.828;2023-04-08T09:02:30;102092.34;;;6.62;100.00
45525;BME280;31437;58.350;13.828;2023-04-08T09:05:00;102073.25;;;6.57;100.00
45525;BME280;31437;58.350;13.828;2023-04-08T09:07:26;102076.94;;;6.28;100.00
45525;BME280;31437;58.350;13.828;2023-04-08T09:09:52;102066.63;;;6.07;100.00
45525;BME280;31437;58.350;13.828;2023-04-08T09:12:18;102064.94;;;5.98;100.00
45525;BME280;31437;58.350;13.828;2023-04-08T09:17:33;102065.31;;;6.72;100.00
45525;BME280;31437;58.350;13.828;2023-04-08T09:25:23;102036.19;;;7.17;100.00
45525;BME280;31437;58.350;13.828;2023-04-08T09:27:50;102030.88;;;7.23;100.00
45525;BME280;31437;58.350;13.828;2023-04-08T09:30:17;102029.13;;;7.25;100.00
45525;BME280;31437;58.350;13.828;2023-04-08T09:32:46;102030.75;;;7.35;100.00
45525;BME280;31437;58.350;13.828;2023-04-08T09:35:12;102029.63;;;7.59;100.00
45525;BME280;31437;58.350;13.828;2023-04-08T09:37:37;102029.19;;;7.90;100.00
45525;BME280;31437;58.350;13.828;2023-04-08T09:40:02;102016.94;;;7.93;100.00
45525;BME280;31437;58.350;13.828;2023-04-08T09:42:28;102015.94;;;8.02;100.00
45525;BME280;31437;58.350;13.828;2023-04-08T09:44:53;102001.59;;;8.29;100.00
45525;BME280;31437;58.350;13.828;2023-04-08T09:47:24;102001.09;;;8.63;100.00
45525;BME280;31437;58.350;13.828;2023-04-08T09:49:54;101994.50;;;8.90;100.00
45525;BME280;31437;58.350;13.828;2023-04-08T09:52:21;101984.69;;;9.00;100.00
45525;BME280;31437;58.350;13.828;2023-04-08T09:57:21;101986.69;;;8.89;100.00
45525;BME280;31437;58.350;13.828;2023-04-08T09:59:51;101987.66;;;8.81;100.00
45525;BME280;31437;58.350;13.828;2023-04-08T10:02:18;101303.22;;;8.73;100.00
45525;BME280;31437;58.350;13.828;2023-04-08T10:04:46;101300.22;;;8.86;100.00
45525;BME280;31437;58.350;13.828;2023-04-08T10:07:13;101294.81;;;8.93;100.00
45525;BME280;31437;58.350;13.828;2023-04-08T10:09:38;101287.63;;;8.99;100.00
45525;BME280;31437;58.350;13.828;2023-04-08T10:12:07;101280.53;;;9.03;100.00
45525;BME280;31437;58.350;13.828;2023-04-08T10:14:32;101292.47;;;9.12;100.00
45525;BME280;31437;58.350;13.828;2023-04-08T10:19:42;101285.75;;;9.32;100.00
45525;BME280;31437;58.350;13.828;2023-04-08T10:27:40;101277.53;;;9.70;100.00
45525;BME280;31437;58.350;13.828;2023-04-08T10:30:53;101279.75;;;9.82;100.00
45525;BME280;31437;58.350;13.828;2023-04-08T10:32:57;101268.09;;;9.91;100.00
45525;BME280;31437;58.350;13.828;2023-04-08T10:35:30;101278.19;;;10.03;100.00
45525;BME280;31437;58.350;13.828;2023-04-08T10:37:56;101272.66;;;9.86;100.00
45525;BME280;31437;58.350;13.828;2023-04-08T10:40:22;101263.91;;;9.85;100.00
45525;BME280;31437;58.350;13.828;2023-04-08T10:42:53;101270.03;;;9.86;100.00
45525;BME280;31437;58.350;13.828;2023-04-08T10:45:18;101267.16;;;9.67;100.00
45525;BME280;31437;58.350;13.828;2023-04-08T10:47:44;101263.28;;;9.52;100.00
45525;BME280;31437;58.350;13.828;2023-04-08T10:50:13;101263.06;;;9.31;100.00
45525;BME280;31437;58.350;13.828;2023-04-08T10:52:45;101274.44;;;9.30;100.00
45525;BME280;31437;58.350;13.828;2023-04-08T10:55:10;101273.91;;;9.47;100.00
45525;BME280;31437;58.350;13.828;2023-04-08T10:57:36;101272.59;;;9.61;100.00
45525;BME280;31437;58.350;13.828;2023-04-08T11:00:01;101269.63;;;9.71;100.00
45525;BME280;31437;58.350;13.828;2023-04-08T11:02:32;101270.13;;;9.83;100.00
45525;BME280;31437;58.350;13.828;2023-04-08T11:04:58;101285.97;;;9.80;100.00
45525;BME280;31437;58.350;13.828;2023-04-08T11:07:24;101267.91;;;9.70;100.00
45525;BME280;31437;58.350;13.828;2023-04-08T11:09:50;101272.50;;;9.64;100.00
45525;BME280;31437;58.350;13.828;2023-04-08T11:12:15;101269.00;;;9.65;100.00
45525;BME280;31437;58.350;13.828;2023-04-08T11:14:43;101266.72;;;9.54;100.00
45525;BME280;31437;58.350;13.828;2023-04-08T11:17:09;101264.19;;;9.51;100.00
45525;BME280;31437;58.350;13.828;2023-04-08T11:19:36;101260.94;;;9.44;100.00
45525;BME280;31437;58.350;13.828;2023-04-08T11:22:01;101262.63;;;9.45;100.00
45525;BME280;31437;58.350;13.828;2023-04-08T11:24:27;101259.78;;;9.53;100.00
45525;BME280;31437;58.350;13.828;2023-04-08T11:26:52;101251.75;;;9.58;100.00
45525;BME280;31437;58.350;13.828;2023-04-08T11:29:18;101256.53;;;9.71;100.00
45525;BME280;31437;58.350;13.828;2023-04-08T11:31:45;101251.84;;;9.81;100.00
45525;BME280;31437;58.350;13.828;2023-04-08T11:34:12;101259.34;;;9.92;100.00
45525;BME280;31437;58.350;13.828;2023-04-08T11:36:45;101249.09;;;9.84;100.00
45525;BME280;31437;58.350;13.828;2023-04-08T11:39:11;101259.22;;;9.95;100.00
45525;BME280;31437;58.350;13.828;2023-04-08T11:41:37;101254.13;;;9.90;100.00
45525;BME280;31437;58.350;13.828;2023-04-08T11:44:03;101265.66;;;9.86;100.00
45525;BME280;31437;58.350;13.828;2023-04-08T11:46:30;101252.97;;;9.74;100.00
45525;BME280;31437;58.350;13.828;2023-04-08T11:49:06;101249.31;;;9.78;100.00
45525;BME280;31437;58.350;13.828;2023-04-08T11:51:34;101249.47;;;9.73;100.00
45525;BME280;31437;58.350;13.828;2023-04-08T11:54:03;101251.09;;;9.77;100.00
45525;BME280;31437;58.350;13.828;2023-04-08T11:56:28;101248.16;;;9.87;100.00
45525;BME280;31437;58.350;13.828;2023-04-08T11:58:54;101260.00;;;9.97;100.00
45525;BME280;31437;58.350;13.828;2023-04-08T12:01:20;101254.94;;;9.92;100.00
45525;BME280;31437;58.350;13.828;2023-04-08T12:03:52;101251.16;;;10.01;100.00
45525;BME280;31437;58.350;13.828;2023-04-08T12:06:18;101263.13;;;10.08;100.00
45525;BME280;31437;58.350;13.828;2023-04-08T12:08:43;101255.44;;;10.04;100.00
45525;BME280;31437;58.350;13.828;2023-04-08T12:11:09;101250.22;;;10.02;100.00
45525;BME280;31437;58.350;13.828;2023-04-08T12:13:35;101249.22;;;10.06;100.00
45525;BME280;31437;58.350;13.828;2023-04-08T12:16:00;101236.13;;;10.06;100.00
45525;BME280;31437;58.350;13.828;2023-04-08T12:18:25;101238.75;;;10.06;100.00
45525;BME280;31437;58.350;13.828;2023-04-08T12:20:51;101234.56;;;10.00;100.00
45525;BME280;31437;58.350;13.828;2023-04-08T12:23:18;101230.69;;;10.11;100.00
45525;BME280;31437;58.350;13.828;2023-04-08T12:25:44;101224.22;;;10.21;100.00
45525;BME280;31437;58.350;13.828;2023-04-08T12:28:10;101231.31;;;10.17;100.00
45525;BME280;31437;58.350;13.828;2023-04-08T12:30:36;101230.22;;;10.24;100.00
45525;BME280;31437;58.350;13.828;2023-04-08T12:33:01;101225.75;;;10.28;100.00
45525;BME280;31437;58.350;13.828;2023-04-08T12:35:26;101222.03;;;10.34;100.00
45525;BME280;31437;58.350;13.828;2023-04-08T12:37:52;101217.38;;;10.42;100.00
45525;BME280;31437;58.350;13.828;2023-04-08T12:40:17;101221.06;;;10.36;100.00
45525;BME280;31437;58.350;13.828;2023-04-08T12:42:43;101223.63;;;10.38;100.00
45525;BME280;31437;58.350;13.828;2023-04-08T12:45:08;101224.50;;;10.38;100.00
45525;BME280;31437;58.350;13.828;2023-04-08T12:47:33;101220.00;;;10.42;100.00
45525;BME280;31437;58.350;13.828;2023-04-08T12:49:59;101216.56;;;10.40;100.00
45525;BME280;31437;58.350;13.828;2023-04-08T12:52:24;101222.84;;;10.36;100.00
45525;BME280;31437;58.350;13.828;2023-04-08T12:54:49;101221.94;;;10.37;100.00